Aviation Digital Data Service (ADDS)

Output produced by TAFs form (0812 UTC 18 November 2017)
found at http://aviationweather.gov/adds/tafs/
 
KTCS 180540Z 1806/1906 24007KT P6SM SCT120 BKN250 
     FM181000 35015G25KT P6SM FEW140 SCT250 
     FM181800 04011KT P6SM FEW140 SCT250 
     FM190300 34005KT P6SM FEW250